ADDS METAR Data INFO
IDs: Format: Raw Decoded Include TAF

Data at: 1935 UTC 18 Feb 2018

KBMG 181853Z 15008KT 10SM CLR 08/00 A3023 RMK AO2 SLP241 T00780000
KBMG 181753Z 14008KT 10SM CLR 06/01 A3027 RMK AO2 SLP255 I6000 T00610011 10067 21050 58025
KBMG 181653Z 18006KT 10SM CLR 04/01 A3031 RMK AO2 SLP269 T00440006
KBMG 181553Z 15007KT 7SM SCT009 02/00 A3032 RMK AO2 SLP275 T00220000
KBMG 181501Z 14007KT 6SM BR BKN008 01/M01 A3034 RMK AO2 T00061011
KBMG 181453Z 15007KT 6SM BR SCT015 01/M01 A3034 RMK AO2 SLP282 I3000 T00061011 53008
KBMG 181353Z 12004KT 4SM BR SCT011 M02/M03 A3033 RMK AO2 SLP280 T10171028
KBMG 181253Z 00000KT 5SM BR CLR M04/M06 A3032 RMK AO2 SLP274 I1000 T10441056
KBMG 181153Z 00000KT 5SM BR CLR M04/M06 A3032 RMK AO2 SLP276 70008 I1000 I6001 T10441056 10006 21044 51019
KBMG 181053Z AUTO 00000KT 4SM BR CLR M03/M05 A3031 RMK AO2 SLP270 T10331050
KBMG 180953Z AUTO 00000KT 4SM BR CLR M03/M04 A3029 RMK AO2 SLP265 I1001 T10331039
KBMG 180853Z AUTO 00000KT 5SM BR CLR M03/M04 A3026 RMK AO2 SLP255 T10281039 53018
KBMG 180753Z AUTO 00000KT 8SM CLR M01/M03 A3025 RMK AO2 SLP249 T10111028
KBMG 180653Z AUTO 30004KT 8SM CLR 00/M02 A3022 RMK AO2 SLP241 T00001022
KBMG 180553Z AUTO 31004KT 10SM CLR 01/M02 A3021 RMK AO2 SLP236 60000 T00061022 10028 20006 51023
KBMG 180529Z AUTO 30006KT 10SM SCT017 01/M02 A3020 RMK AO2 T00061022
KBMG 180509Z AUTO 31006KT 10SM BKN018 01/M02 A3020 RMK AO2 T00111022
KBMG 180453Z AUTO 28007KT 10SM FEW018 01/M02 A3020 RMK AO2 SLP234 T00061022 400281033
KBMG 180353Z AUTO 30010KT 10SM CLR 01/M02 A3016 RMK AO2 SLP221 T00111022
KBMG 180329Z AUTO 32007G17KT 10SM SCT022 02/M02 A3015 RMK AO2 T00171017
KBMG 180253Z AUTO 10SM BKN020 OVC027 03/M01 A3014 RMK AO2 SLP212 60000 T00281006 51030
KBMG 180227Z 29013G18KT 10SM SCT015 BKN022 OVC026 03/01 A3013 RMK AO2 T00280011
KBMG 180216Z 29010KT 10SM FEW009 BKN013 OVC018 03/01 A3012 RMK AO2 T00280011
KBMG 180205Z 29013G19KT 10SM SCT011 BKN016 OVC028 03/01 A3011 RMK AO2 T00280011
KBMG 180153Z 27012G19KT 10SM BKN009 OVC014 03/02 A3011 RMK AO2 UPE0058B23E31RAB22E32 CIG 007V013 SLP201 P0000 T00280017
KBMG 180105Z 27010G19KT 4SM BR OVC005 03/02 A3008 RMK AO2 UPE0058 CIG 004V011 P0000 T00280017
KBMG 180053Z 28008G16KT 3SM UP BR OVC004 03/02 A3008 RMK AO2 RAB48E49UPB49 SLP191 P0000 T00280017
KBMG 180022Z 25007KT 5SM BR OVC004 02/01 A3007 RMK AO2 T00220011
KBMG 172353Z 23006KT 2 1/2SM BR OVC004 02/01 A3005 RMK AO2 UPE00B10E43SNB00E10 SLP182 P0001 60004 T00170011 10017 20000 51017
KBMG 172342Z 23005KT 2 1/2SM UP BR OVC004 02/01 A3004 RMK AO2 UPE00B10SNB00E10 P0000 T00170006
KBMG 172322Z 22006KT 4SM BR OVC004 02/01 A3003 RMK AO2 UPE00B10E13SNB00E10 P0000 T00170006
KBMG 172310Z 22006KT 2SM UP BR OVC004 01/01 A3003 RMK AO2 UPE00B10SNB00E10 P0000 T00110006
KBMG 172301Z 21006KT 1 3/4SM -SN BR OVC004 01/01 A3003 RMK AO2 UPE00SNB00 P0000 T00110006
KBMG 172253Z 21006KT 2SM UP BR OVC004 02/01 A3003 RMK AO2 UPB51SNE18 SLP177 P0000 T00170006
KBMG 172210Z 21004KT 3SM -SN BR OVC004 01/01 A3002 RMK AO2 P0000 T00110006
KBMG 172153Z 22004KT 2 1/2SM -SN BR BKN006 OVC013 01/01 A3002 RMK AO2 RAE00SNB00 SLP173 P0002 T00110006
KBMG 172107Z 23005KT 2 1/2SM -SN BR OVC006 02/01 A3001 RMK AO2 RAE00SNB00 CIG 005V009 P0000 T00170006
KBMG 172053Z 22005KT 3SM -RA BR OVC006 02/01 A3000 RMK AO2 UPB47E50RAB50 SLP165 P0000 60001 T00170006 55013
KBMG 171953Z 17005KT 4SM BR OVC005 02/01 A2997 RMK AO2 SNE02 SLP157 P0000 T00170006
KBMG 171949Z 17005KT 3SM BR OVC005 02/01 A2997 RMK AO2 SNE02 P0000
KBMG 171944Z 17005KT 1 1/4SM BR OVC005 01/00 A2997 RMK AO2 SNE02 P0000 T00110000
KBMG 171910Z 16004KT 3SM BR OVC005 01/00 A3000 RMK AO2 SNE02 P0000 T00060000
KBMG 171853Z 16005KT 2SM -SN BR OVC006 01/M01 A3001 RMK AO2 SLP167 P0001 T00061006
KBMG 171833Z 17007KT 2SM -SN BR OVC006 00/M01 A3002 RMK AO2 P0001 T00001006
KBMG 171753Z 16008KT 1 1/4SM -SN BR BKN005 OVC025 00/M01 A3003 RMK AO2 SLP177 P0001 60004 T00001011 10000 21017 58032
KBMG 171735Z 16008KT 1SM -SN BR BKN005 OVC024 00/M01 A3006 RMK AO2 P0001 T00001011
KBMG 171657Z 15006KT 1SM -SN BR FEW005 OVC017 M01/M02 A3009 RMK AO2 P0000 T10061017
KBMG 171653Z 16006KT 3/4SM -SN BR VV017 M01/M02 A3009 RMK AO2 SLP196 P0003 T10061017
KBMG 171642Z 16005KT 1/2SM SN FZFG VV014 M01/M02 A3010 RMK AO2 P0003 T10061017
KBMG 171607Z 16005KT 3/4SM -SN BKN024 OVC033 00/M03 A3011 RMK AO2 P0000 T00001028
KBMG 171600Z 16005KT 2SM -SN BKN028 OVC037 00/M03 A3011 RMK AO2 P0000 T00001028
KBMG 171553Z 15005KT 4SM -SN OVC035 00/M03 A3011 RMK AO2 SNB35 SLP201 P0000 T00001033
KBMG 171453Z 14006KT 10SM OVC060 00/M03 A3013 RMK AO2 SLP210 T00001033 58007
KBMG 171353Z 12005KT 10SM BKN080 OVC095 M01/M04 A3014 RMK AO2 SLP212 T10061039
KBMG 171253Z 09003KT 10SM BKN120 M01/M03 A3018 RMK AO2 SLP226 T10111033
KBMG 171153Z 14003KT 10SM CLR M02/M03 A3015 RMK AO2 SLP218 70004 I6000 T10171033 11017 21033 58017
KBMG 171053Z AUTO 00000KT 7SM CLR M03/M04 A3018 RMK AO2 SLP227 I1000 T10281039
KBMG 170953Z AUTO 00000KT 9SM CLR M03/M05 A3019 RMK AO2 SLP230 T10331050
KBMG 170853Z AUTO 00000KT 8SM CLR M02/M04 A3020 RMK AO2 SLP235 T10221039 58020
KBMG 170753Z AUTO 00000KT 7SM CLR M02/M03 A3023 RMK AO2 SLP244 T10221033